West Lafayette, IN

5:56 AM EDT on August 31, 2015 (GMT -0400)
Cumberland Elementary/West Lafayette | | Change Station
CLOSE
Current Station
Personal Weather Station
Location: West Lafayette, IN
Elevation: 712 ft
Nearby Weather Stations

Elev 712 ft 40.46 °N, 86.91 °W | Updated 9 minutes ago

Fog
Fog
68.5 °F
Feels Like 68.5 °F
N
2.7
Wind Variable Wind from SW

Today
High -- | Low -- °F
--% Chance of Precip.
Yesterday
High -- | Low -- °F
Precip. -- in
7:13 AM 8:21 PM
Waning Gibbous, 96% visible
Pressure 30.04 in
Visibility 0.5 miles
Clouds
Dew Point 63 °F
Humidity 83%
Rainfall 0.00 in
Snow Depth Not available.
UV Not available.
Pollen 10.30 out of 12
Air Quality Not available.
Flu Activity Not available.
METAR KLAF 310920Z AUTO 00000KT 1/2SM FG VV007 18/18 A3004 RMK AO2 T01830183 TSNO
Pressure 30.04 in
Visibility 0.5 miles
Clouds
Dew Point 63 °F
Humidity 83%
Rainfall 0.00 in
Snow Depth Not available.
UV Not available.
Pollen 10.30 out of 12
Air Quality Not available.
Flu Activity Not available.
METAR KLAF 310920Z AUTO 00000KT 1/2SM FG VV007 18/18 A3004 RMK AO2 T01830183 TSNO

10-Day Weather Forecast

×

Almanac

Astronomy

Aug. 31, 2015 Rise Set
Actual Time
Civil Twilight
Nautical Twilight
Astronomical Twilight
Moon
Length of Visible Light
Length of Day
Tomorrow will be .
, % of the Moon is Illuminated

Today's Extremes

State Highs State Lows

Community

WunderPhotos

Upload Photos

1,851,229 photos uploaded!

WunderBlogs® & News

Nearby

Air Quality

  Air Quality AQ Index Pollutant
Not available.

Snow Depth

Station Depth Elevation

Earthquake Activity

City Distance Mag. Time & Date
Minimum magnitude displayed is 2.5.

Coastal Water Temperatures

Place Temperature

Stations

Nearby Weather Stations

Station Location Temp. Windchill Dew Point Humidity Wind Precip. Elev Updated Type